createdAt,value
2018-04-27T04:05:27.897Z,99.90
2018-04-27T04:07:57.787Z,99.90
2018-04-27T04:10:26.985Z,99.90
2018-04-27T04:12:55.777Z,99.90
2018-04-27T04:15:24.668Z,99.90
2018-04-27T04:17:53.705Z,99.90
2018-04-27T04:20:23.072Z,99.90
2018-04-27T04:22:52.217Z,99.90
2018-04-27T04:25:21.772Z,99.90
2018-04-27T04:27:50.932Z,99.90
2018-04-27T04:30:20.741Z,99.90
2018-04-27T04:32:50.595Z,99.90
2018-04-27T04:35:19.534Z,99.90
2018-04-27T04:37:48.995Z,99.90
2018-04-27T04:40:17.987Z,99.90
2018-04-27T04:42:47.753Z,99.90
2018-04-27T04:45:17.741Z,99.90
2018-04-27T04:47:47.541Z,99.90
2018-04-27T04:50:16.345Z,99.90
2018-04-27T04:52:45.429Z,99.90
2018-04-27T04:55:14.919Z,99.90
2018-04-27T04:57:43.825Z,99.90
2018-04-27T05:00:13.221Z,99.90
2018-04-27T05:02:42.509Z,99.90
2018-04-27T05:05:13.152Z,99.90
2018-04-27T05:07:43.124Z,99.90
2018-04-27T05:10:13.139Z,99.90
2018-04-27T05:12:42.181Z,99.90
2018-04-27T05:15:11.037Z,99.90
2018-04-27T05:17:40.583Z,99.90
2018-04-27T05:20:13.506Z,99.90
2018-04-27T05:29:01.012Z,99.90
2018-04-27T05:31:31.050Z,99.90
2018-04-27T05:33:59.548Z,99.90
2018-04-27T05:36:28.384Z,99.90
2018-04-27T05:38:57.208Z,99.90
2018-04-27T05:41:26.209Z,99.90
2018-04-27T05:43:54.061Z,99.90
2018-04-27T05:46:21.668Z,99.90
2018-04-27T05:48:50.539Z,99.90
2018-04-27T05:51:19.352Z,99.90
2018-04-27T05:53:47.877Z,99.90
2018-04-27T05:56:15.707Z,99.90
2018-04-27T05:58:44.660Z,99.90
2018-04-27T06:01:13.687Z,99.90
2018-04-27T06:03:53.641Z,99.90
2018-04-27T06:06:22.497Z,99.90
2018-04-27T06:08:51.324Z,99.90
2018-04-27T06:11:20.164Z,99.90
2018-04-27T06:13:49.024Z,99.90
2018-04-27T06:16:16.888Z,99.90
2018-04-27T06:18:45.960Z,99.90
2018-04-27T06:21:14.699Z,99.90
2018-04-27T06:23:43.478Z,99.90
2018-04-27T06:26:12.128Z,99.90
2018-04-27T06:28:49.111Z,99.90
2018-04-27T06:31:17.220Z,99.90
2018-04-27T06:33:46.783Z,99.90
2018-04-27T06:36:15.612Z,99.90
2018-04-27T06:38:44.525Z,99.90
2018-04-27T06:41:13.276Z,99.90
2018-04-27T06:43:41.149Z,99.90
2018-04-27T06:46:09.178Z,99.90
2018-04-27T06:48:37.929Z,99.90
2018-04-27T06:51:06.563Z,99.90
2018-04-27T06:53:35.417Z,99.90
2018-04-27T06:56:04.364Z,99.90
2018-04-27T06:58:32.349Z,99.90
2018-04-27T07:01:00.175Z,99.90
2018-04-27T07:03:28.027Z,99.90
2018-04-27T07:05:56.086Z,99.90
2018-04-27T07:08:24.362Z,99.90
2018-04-27T07:10:53.180Z,99.90
2018-04-27T07:13:21.286Z,99.90
2018-04-27T07:15:49.124Z,99.90
2018-04-27T07:18:17.884Z,99.90
2018-04-27T07:20:46.624Z,99.90
2018-04-27T07:23:15.435Z,99.90
2018-04-27T07:25:44.027Z,99.90
2018-04-27T07:28:13.997Z,99.90
2018-04-27T07:30:42.825Z,99.90
2018-04-27T07:33:11.677Z,99.90
2018-04-27T07:35:40.483Z,99.90
2018-04-27T07:38:08.345Z,99.90
2018-04-27T07:40:36.201Z,99.90
2018-04-27T07:43:04.027Z,99.90
2018-04-27T07:45:32.858Z,99.90
2018-04-27T07:48:00.706Z,99.90
2018-04-27T07:50:28.542Z,99.90
2018-04-27T07:52:57.763Z,99.90
2018-04-27T07:55:26.393Z,99.90
2018-04-27T07:57:54.387Z,99.90
2018-04-27T08:00:22.009Z,99.90
2018-04-27T08:02:50.213Z,99.90
2018-04-27T08:05:17.805Z,99.90
2018-04-27T08:07:45.683Z,99.90
2018-04-27T08:10:13.527Z,99.90
2018-04-27T08:12:42.171Z,99.90
2018-04-27T08:15:10.664Z,99.90
2018-04-27T08:17:40.887Z,99.90
2018-04-27T08:20:08.447Z,99.90
2018-04-27T08:22:38.344Z,99.90
2018-04-27T08:25:06.275Z,98.20
2018-04-27T08:27:34.485Z,97.40
2018-04-27T08:30:02.671Z,96.80
2018-04-27T08:32:30.739Z,98.60
2018-04-27T08:34:58.648Z,99.20
2018-04-27T08:37:27.381Z,99.90
2018-04-27T08:39:56.957Z,99.90
2018-04-27T08:42:25.500Z,99.20
2018-04-27T08:44:54.840Z,99.90
2018-04-27T08:47:23.451Z,97.80
2018-04-27T08:49:52.267Z,97.10
2018-04-27T08:52:20.151Z,94.40
2018-04-27T08:54:47.985Z,96.80
2018-04-27T08:57:16.031Z,92.70
2018-04-27T08:59:44.762Z,92.20
2018-04-27T09:02:13.555Z,92.30
2018-04-27T09:04:42.357Z,91.90
2018-04-27T09:07:10.882Z,82.50
2018-04-27T09:09:40.129Z,88.70
2018-04-27T09:12:08.923Z,88.50
2018-04-27T09:14:37.795Z,64.40
2018-04-27T09:17:06.380Z,59.10
2018-04-27T09:19:35.219Z,52.20
2018-04-27T09:22:04.692Z,60.50
2018-04-27T09:24:34.000Z,56.20
2018-04-27T09:27:03.714Z,53.50
2018-04-27T09:29:32.579Z,60.00
2018-04-27T09:32:01.597Z,65.60
2018-04-27T09:34:29.548Z,53.00
2018-04-27T09:36:58.360Z,58.70
2018-04-27T09:39:27.604Z,44.70
2018-04-27T09:41:56.334Z,43.60
2018-04-27T09:44:24.543Z,47.10
2018-04-27T09:46:53.355Z,43.40
2018-04-27T09:49:22.609Z,38.50
2018-04-27T09:51:51.172Z,38.60
2018-04-27T09:54:20.013Z,42.30
2018-04-27T09:56:48.891Z,36.30
2018-04-27T09:59:18.538Z,40.60
2018-04-27T10:01:47.504Z,43.40
2018-04-27T10:04:16.177Z,43.40
2018-04-27T10:06:45.535Z,40.80
2018-04-27T10:09:14.054Z,40.40
2018-04-27T10:11:42.880Z,42.80
2018-04-27T10:14:11.745Z,45.30
2018-04-27T10:16:40.482Z,50.10
2018-04-27T10:19:10.214Z,48.60
2018-04-27T10:21:39.147Z,48.70
2018-04-27T10:24:08.767Z,49.30
2018-04-27T10:26:38.518Z,45.20
2018-04-27T10:29:07.516Z,49.90
2018-04-27T10:31:36.392Z,44.40
2018-04-27T10:34:06.488Z,49.80
2018-04-27T10:36:35.408Z,49.80
2018-04-27T10:39:04.188Z,49.10
2018-04-27T10:41:33.811Z,45.90
2018-04-27T10:44:03.864Z,47.00
2018-04-27T10:46:32.386Z,46.80
2018-04-27T10:49:00.501Z,48.40
2018-04-27T10:51:29.033Z,43.70
2018-04-27T10:53:56.778Z,50.00
2018-04-27T10:56:25.472Z,42.30
2018-04-27T10:58:53.760Z,40.40
2018-04-27T11:01:22.320Z,43.00
2018-04-27T11:03:50.845Z,38.70
2018-04-27T11:06:19.546Z,39.60
2018-04-27T11:08:48.796Z,42.60
2018-04-27T11:11:16.634Z,42.20
2018-04-27T11:13:44.862Z,36.70
2018-04-27T11:16:12.730Z,37.30
2018-04-27T11:18:42.081Z,34.90
2018-04-27T11:21:09.901Z,34.80
2018-04-27T11:23:37.739Z,32.30
2018-04-27T11:26:05.645Z,41.50
2018-04-27T11:28:34.397Z,37.30
2018-04-27T11:31:02.964Z,40.00
2018-04-27T11:33:31.428Z,36.30
2018-04-27T11:36:00.072Z,37.40
2018-04-27T11:38:28.773Z,37.30
2018-04-27T11:40:57.243Z,41.20
2018-04-27T11:43:25.751Z,40.80
2018-04-27T11:45:54.675Z,43.20
2018-04-27T11:48:22.355Z,43.10
2018-04-27T11:50:50.376Z,44.50
2018-04-27T11:53:18.283Z,41.10
2018-04-27T11:55:46.013Z,40.00
2018-04-27T11:58:14.223Z,41.50
2018-04-27T12:00:41.821Z,39.70
2018-04-27T12:03:09.643Z,37.30
2018-04-27T12:05:37.573Z,42.70
2018-04-27T12:08:05.507Z,42.50
2018-04-27T12:10:33.367Z,46.40
2018-04-27T12:13:01.188Z,41.50
2018-04-27T12:15:29.348Z,39.00
2018-04-27T12:17:57.234Z,39.20
2018-04-27T12:20:25.372Z,40.80
2018-04-27T12:22:54.074Z,42.10
2018-04-27T12:25:22.472Z,41.80
2018-04-27T12:27:50.943Z,43.50
2018-04-27T12:30:19.091Z,43.60
2018-04-27T12:32:47.612Z,45.00
2018-04-27T12:35:16.103Z,45.60
2018-04-27T12:37:44.655Z,50.80
2018-04-27T12:40:12.462Z,51.20
2018-04-27T12:42:40.328Z,48.00
2018-04-27T12:45:08.958Z,46.00
2018-04-27T12:47:37.691Z,45.90
2018-04-27T12:50:05.694Z,46.20
2018-04-27T12:52:33.502Z,55.00
2018-04-27T12:55:01.319Z,51.90
2018-04-27T12:57:29.896Z,53.80
2018-04-27T12:59:59.129Z,50.00
2018-04-27T13:02:27.656Z,50.00
2018-04-27T13:04:56.148Z,57.70
2018-04-27T13:07:24.930Z,58.40
2018-04-27T13:09:52.745Z,58.30
2018-04-27T13:12:20.293Z,56.40
2018-04-27T13:14:48.433Z,51.00
2018-04-27T13:17:16.624Z,60.80
2018-04-27T13:19:45.121Z,55.80
2018-04-27T13:22:13.804Z,58.10
2018-04-27T13:24:43.277Z,56.20
2018-04-27T13:27:11.748Z,56.30
2018-04-27T13:29:40.302Z,58.70
2018-04-27T13:32:08.895Z,61.80
2018-04-27T13:34:37.392Z,57.10
2018-04-27T13:37:05.559Z,60.70
2018-04-27T13:39:34.050Z,60.30
2018-04-27T13:42:02.210Z,63.50
2018-04-27T13:44:30.712Z,65.10
2018-04-27T13:46:58.695Z,63.00
2018-04-27T13:49:27.407Z,59.10
2018-04-27T13:51:55.319Z,65.00
2018-04-27T13:54:23.437Z,64.40
2018-04-27T13:56:52.208Z,59.80
2018-04-27T13:59:20.041Z,59.80
2018-04-27T14:01:47.888Z,59.80
2018-04-27T14:04:15.755Z,63.20
2018-04-27T14:06:43.595Z,57.20
2018-04-27T14:09:11.406Z,66.00
2018-04-27T14:11:39.253Z,61.50
2018-04-27T14:14:07.823Z,56.80
2018-04-27T14:16:36.427Z,66.20
2018-04-27T14:19:04.271Z,66.20
2018-04-27T14:21:32.908Z,59.90
2018-04-27T14:24:02.099Z,59.00
2018-04-27T14:26:30.568Z,59.20
2018-04-27T14:28:59.066Z,58.30
2018-04-27T14:31:28.120Z,59.80
2018-04-27T14:33:57.366Z,55.60
2018-04-27T14:36:25.868Z,55.70
2018-04-27T14:38:54.391Z,59.50
2018-04-27T14:41:23.659Z,60.60
2018-04-27T14:43:52.168Z,61.30
2018-04-27T14:46:21.612Z,61.10
2018-04-27T14:48:50.110Z,61.00
2018-04-27T14:51:17.688Z,63.00
2018-04-27T14:53:46.422Z,60.20
2018-04-27T14:56:15.012Z,59.90
2018-04-27T14:58:42.885Z,59.80
2018-04-27T15:01:11.466Z,60.90
2018-04-27T15:03:39.997Z,61.00
2018-04-27T15:06:08.485Z,57.80
2018-04-27T15:08:36.709Z,63.00
2018-04-27T15:11:04.711Z,67.80
2018-04-27T15:13:32.498Z,68.60
2018-04-27T15:16:00.948Z,70.40
2018-04-27T15:18:29.680Z,75.40
2018-04-27T15:20:58.172Z,71.80
2018-04-27T15:23:26.720Z,75.00
2018-04-27T15:25:54.880Z,69.30
2018-04-27T15:28:22.699Z,67.00
2018-04-27T15:30:51.968Z,71.80
2018-04-27T15:33:21.206Z,75.20
2018-04-27T15:35:49.484Z,74.90
2018-04-27T15:38:18.016Z,74.20
2018-04-27T15:40:45.859Z,74.20
2018-04-27T15:43:13.714Z,74.50
2018-04-27T15:45:42.940Z,73.60
2018-04-27T15:48:10.807Z,73.50
2018-04-27T15:50:38.571Z,76.10
2018-04-27T15:53:06.416Z,74.70
2018-04-27T15:55:36.282Z,78.30
2018-04-27T15:58:04.759Z,78.30
2018-04-27T16:00:32.633Z,79.60
2018-04-27T16:03:00.461Z,80.00
2018-04-27T16:05:28.258Z,79.70
2018-04-27T16:07:56.090Z,84.50
2018-04-27T16:10:24.107Z,86.60
2018-04-27T16:12:51.941Z,91.80
2018-04-27T16:15:20.144Z,83.40
2018-04-27T16:17:47.922Z,78.20
2018-04-27T16:20:15.717Z,79.60
2018-04-27T16:22:43.589Z,81.60
2018-04-27T16:25:11.424Z,89.70
2018-04-27T16:27:41.038Z,94.80
2018-04-27T16:30:09.032Z,95.40
2018-04-27T16:32:37.217Z,96.60
2018-04-27T16:35:06.064Z,98.70
2018-04-27T16:37:34.283Z,98.70
2018-04-27T16:40:02.909Z,99.90
2018-04-27T16:42:31.890Z,99.90
2018-04-27T16:45:01.021Z,99.90
2018-04-27T16:47:30.495Z,99.90
2018-04-27T16:49:59.371Z,99.90
2018-04-27T16:52:28.212Z,98.60
2018-04-27T16:54:57.047Z,99.90
2018-04-27T16:57:25.080Z,99.90
2018-04-27T16:59:52.973Z,99.90
2018-04-27T17:02:21.558Z,99.90
2018-04-27T17:04:50.453Z,99.90
2018-04-27T17:07:19.432Z,99.90
2018-04-27T17:09:48.074Z,99.90
2018-04-27T17:12:16.720Z,99.90
2018-04-27T17:14:44.900Z,99.90
2018-04-27T17:17:12.924Z,99.90
2018-04-27T17:19:41.439Z,99.90
2018-04-27T17:22:09.376Z,99.90
2018-04-27T17:24:37.432Z,99.90
2018-04-27T17:27:05.972Z,99.90
2018-04-27T17:29:34.033Z,99.90
2018-04-27T17:32:02.849Z,99.90
2018-04-27T17:34:30.805Z,99.90
2018-04-27T17:36:59.056Z,99.90
2018-04-27T17:39:27.371Z,99.90
2018-04-27T17:41:55.336Z,99.90
2018-04-27T17:44:23.220Z,99.90
2018-04-27T17:46:51.195Z,99.90
2018-04-27T17:49:19.626Z,99.90
2018-04-27T17:51:49.104Z,99.90
2018-04-27T17:54:17.365Z,99.90
2018-04-27T17:56:46.186Z,99.90
2018-04-27T17:59:15.025Z,99.90
2018-04-27T18:01:44.923Z,99.90
2018-04-27T18:04:13.795Z,99.90
2018-04-27T18:06:42.008Z,99.90
2018-04-27T18:09:10.823Z,99.90
2018-04-27T18:11:39.717Z,99.90
2018-04-27T18:14:09.278Z,99.90
2018-04-27T18:16:37.475Z,99.90
2018-04-27T18:19:06.291Z,99.90
2018-04-27T18:21:34.866Z,99.90
2018-04-27T18:24:03.792Z,99.90
2018-04-27T18:26:31.881Z,99.90
2018-04-27T18:29:00.521Z,99.90
2018-04-27T18:31:29.556Z,99.90
2018-04-27T18:34:01.157Z,99.90
2018-04-27T18:36:30.091Z,99.90
2018-04-27T18:38:58.466Z,99.90
2018-04-27T18:41:27.048Z,99.90
2018-04-27T18:43:54.908Z,99.90
2018-04-27T18:46:23.441Z,99.90
2018-04-27T18:48:52.596Z,99.90
2018-04-27T18:51:20.439Z,99.90
2018-04-27T18:53:48.334Z,99.90
2018-04-27T18:56:18.111Z,99.90
2018-04-27T18:58:51.608Z,99.90
2018-04-27T19:01:20.438Z,99.90
2018-04-27T19:03:48.682Z,99.90
2018-04-27T19:06:16.723Z,99.90
2018-04-27T19:08:44.865Z,99.90
2018-04-27T19:11:12.983Z,99.90
2018-04-27T19:13:40.825Z,99.90
2018-04-27T19:16:08.669Z,99.90
2018-04-27T19:18:36.587Z,99.90
2018-04-27T19:21:05.151Z,99.90
2018-04-27T19:23:39.047Z,99.90
2018-04-27T19:26:25.423Z,99.90
2018-04-27T19:28:53.464Z,99.90
2018-04-27T19:31:21.278Z,99.90
2018-04-27T19:33:49.096Z,99.90
2018-04-27T19:36:16.983Z,99.90
2018-04-27T19:38:45.140Z,99.90
2018-04-27T19:41:13.183Z,99.90
2018-04-27T19:43:42.025Z,99.90
2018-04-27T19:46:09.875Z,99.90
2018-04-27T19:48:37.725Z,99.90
2018-04-27T19:51:05.751Z,99.90
2018-04-27T19:53:34.010Z,99.90
2018-04-27T19:56:02.061Z,99.90
2018-04-27T19:58:30.085Z,99.90
2018-04-27T20:00:57.969Z,99.90
2018-04-27T20:03:26.207Z,99.90
2018-04-27T20:05:54.167Z,99.90
2018-04-27T20:08:22.075Z,99.90
2018-04-27T20:10:50.313Z,99.90
2018-04-27T20:13:19.714Z,99.90
2018-04-27T20:15:48.520Z,99.90
2018-04-27T20:18:17.155Z,99.90
2018-04-27T20:20:45.957Z,99.90
2018-04-27T20:23:14.776Z,99.90
2018-04-27T20:25:43.506Z,99.90
2018-04-27T20:28:11.604Z,99.90
2018-04-27T20:30:40.142Z,99.90
2018-04-27T20:33:09.971Z,99.90
2018-04-27T20:35:38.596Z,99.90
2018-04-27T20:38:25.206Z,99.90
2018-04-27T20:40:53.184Z,99.90
2018-04-27T20:43:24.937Z,99.90
2018-04-27T20:45:55.802Z,99.90
2018-04-27T20:48:26.329Z,99.90
2018-04-27T20:50:57.038Z,99.90
2018-04-27T20:53:24.868Z,99.90
2018-04-27T20:55:53.560Z,99.90
2018-04-27T20:58:21.165Z,99.90
2018-04-27T21:00:48.843Z,99.90
2018-04-27T21:03:16.896Z,99.90
2018-04-27T21:05:44.788Z,99.90
2018-04-27T21:08:13.510Z,99.90
2018-04-27T21:10:41.339Z,99.90
2018-04-27T21:13:09.492Z,99.90
2018-04-27T21:15:38.087Z,99.90
2018-04-27T21:18:06.009Z,99.90
2018-04-27T21:20:33.855Z,99.90
2018-04-27T21:23:02.365Z,99.90
2018-04-27T21:25:31.474Z,99.90
2018-04-27T21:28:00.367Z,99.90
2018-04-27T21:30:28.999Z,99.90
2018-04-27T21:33:02.762Z,99.90
2018-04-27T21:35:35.565Z,99.90
2018-04-27T21:38:06.696Z,99.90
2018-04-27T21:40:34.915Z,99.90
2018-04-27T21:43:03.304Z,99.90
2018-04-27T21:45:31.441Z,99.90
2018-04-27T21:48:00.658Z,99.90
2018-04-27T21:50:28.603Z,99.90
2018-04-27T21:52:56.542Z,99.90
2018-04-27T21:55:24.697Z,99.90
2018-04-27T21:57:54.297Z,99.90
